Aviation Digital Data Service (ADDS)

Output produced by METARs form (1756 UTC 24 April 2014)
found at http://www.aviationweather.gov/adds/metars/
 
KGED 241754Z AUTO 29011G17KT 10SM CLR 16/M08 A3002 RMK AO2 SLP165 T01561078 10161 20089 58015